createdAt,value
2017-12-23T00:02:19.888Z,3.30
2017-12-23T00:04:47.496Z,5.10
2017-12-23T00:07:15.796Z,5.40
2017-12-23T00:09:43.304Z,4.95
2017-12-23T00:12:10.817Z,4.87
2017-12-23T00:14:38.400Z,4.85
2017-12-23T00:17:05.994Z,5.35
2017-12-23T00:19:35.365Z,5.43
2017-12-23T00:22:03.340Z,5.25
2017-12-23T00:24:32.829Z,4.60
2017-12-23T00:27:01.801Z,4.90
2017-12-23T00:29:29.636Z,4.45
2017-12-23T00:31:58.892Z,4.50
2017-12-23T00:34:31.401Z,4.07
2017-12-23T00:36:59.672Z,3.92
2017-12-23T00:39:28.052Z,4.15
2017-12-23T00:41:56.328Z,4.65
2017-12-23T00:44:24.618Z,4.18
2017-12-23T00:46:52.905Z,3.50
2017-12-23T00:49:20.433Z,3.50
2017-12-23T00:51:48.782Z,4.28
2017-12-23T00:54:16.417Z,3.25
2017-12-23T00:56:44.208Z,3.53
2017-12-23T00:59:11.720Z,3.28
2017-12-23T01:01:39.317Z,3.50
2017-12-23T01:04:06.831Z,3.90
2017-12-23T01:06:35.118Z,4.00
2017-12-23T01:09:02.652Z,3.30
2017-12-23T01:11:30.312Z,3.20
2017-12-23T01:13:57.928Z,4.10
2017-12-23T01:16:25.504Z,3.65
2017-12-23T01:18:53.017Z,3.65
2017-12-23T01:21:21.296Z,3.50
2017-12-23T01:23:48.817Z,3.65
2017-12-23T01:26:16.333Z,3.83
2017-12-23T01:28:43.880Z,3.20
2017-12-23T01:31:11.402Z,3.10
2017-12-23T01:33:38.943Z,3.62
2017-12-23T01:36:06.456Z,3.45
2017-12-23T01:38:33.984Z,3.90
2017-12-23T01:41:01.529Z,3.42
2017-12-23T01:43:29.185Z,3.20
2017-12-23T01:45:56.984Z,3.10
2017-12-23T01:48:34.256Z,3.37
2017-12-23T01:51:01.861Z,3.30
2017-12-23T01:53:29.459Z,3.00
2017-12-23T01:55:56.976Z,2.60
2017-12-23T01:58:24.496Z,2.50
2017-12-23T02:00:52.019Z,2.90
2017-12-23T02:03:19.684Z,3.03
2017-12-23T02:05:47.336Z,2.40
2017-12-23T02:08:15.003Z,3.05
2017-12-23T02:10:43.548Z,3.35
2017-12-23T02:13:11.111Z,3.03
2017-12-23T02:15:38.628Z,2.37
2017-12-23T02:18:06.129Z,3.15
2017-12-23T02:20:33.645Z,3.17
2017-12-23T02:23:01.305Z,2.70
2017-12-23T02:25:28.928Z,2.90
2017-12-23T02:27:56.516Z,3.00
2017-12-23T02:30:24.037Z,2.70
2017-12-23T02:32:53.232Z,2.70
2017-12-23T02:35:20.749Z,2.67
2017-12-23T02:37:49.037Z,2.75
2017-12-23T02:40:17.321Z,2.80
2017-12-23T02:42:45.608Z,3.03
2017-12-23T02:45:13.113Z,3.10
2017-12-23T02:47:40.628Z,3.10
2017-12-23T02:50:08.328Z,3.05
2017-12-23T02:52:35.921Z,3.00
2017-12-23T02:55:04.193Z,3.10
2017-12-23T02:57:31.717Z,2.87
2017-12-23T02:59:59.220Z,2.67
2017-12-23T03:02:27.508Z,2.70
2017-12-23T03:04:55.104Z,2.97
2017-12-23T03:07:22.718Z,2.97
2017-12-23T03:09:51.297Z,3.25
2017-12-23T03:12:20.436Z,2.55
2017-12-23T03:14:48.258Z,2.70
2017-12-23T03:17:16.773Z,2.90
2017-12-23T03:19:44.475Z,3.00
2017-12-23T03:22:11.989Z,2.85
2017-12-23T03:24:39.491Z,3.10
2017-12-23T03:27:07.020Z,2.55
2017-12-23T03:29:34.636Z,3.05
2017-12-23T03:32:02.961Z,3.22
2017-12-23T03:34:30.552Z,3.28
2017-12-23T03:36:58.157Z,3.20
2017-12-23T03:39:25.664Z,2.75
2017-12-23T03:41:53.194Z,2.70
2017-12-23T03:44:20.703Z,3.45
2017-12-23T03:46:48.996Z,3.00
2017-12-23T03:49:16.542Z,3.05
2017-12-23T03:51:44.815Z,2.87
2017-12-23T03:54:13.185Z,2.80
2017-12-23T03:56:41.588Z,3.08
2017-12-23T03:59:09.155Z,2.95
2017-12-23T04:01:36.652Z,3.08
2017-12-23T04:04:04.173Z,3.00
2017-12-23T04:06:31.701Z,3.40
2017-12-23T04:08:59.356Z,3.10
2017-12-23T04:11:27.797Z,3.05
2017-12-23T04:13:55.633Z,2.83
2017-12-23T04:16:23.462Z,2.90
2017-12-23T04:18:51.961Z,3.12
2017-12-23T04:21:19.693Z,3.58
2017-12-23T04:23:47.215Z,3.35
2017-12-23T04:26:14.714Z,3.30
2017-12-23T04:28:43.025Z,3.50
2017-12-23T04:31:10.547Z,3.00
2017-12-23T04:33:38.833Z,3.50
2017-12-23T04:36:07.156Z,3.10
2017-12-23T04:38:34.801Z,2.90
2017-12-23T04:41:02.319Z,3.47
2017-12-23T04:43:29.854Z,3.00
2017-12-23T04:45:57.372Z,3.03
2017-12-23T04:48:24.882Z,3.28
2017-12-23T04:50:53.173Z,2.85
2017-12-23T04:53:21.457Z,3.08
2017-12-23T04:55:49.057Z,3.22
2017-12-23T04:58:16.641Z,2.90
2017-12-23T05:00:45.860Z,3.10
2017-12-23T05:03:14.355Z,3.45
2017-12-23T05:05:41.901Z,2.97
2017-12-23T05:08:09.408Z,3.25
2017-12-23T05:10:36.913Z,3.35
2017-12-23T05:13:05.195Z,3.20
2017-12-23T05:15:33.483Z,2.75
2017-12-23T05:18:01.134Z,3.00
2017-12-23T05:20:29.408Z,3.20
2017-12-23T05:22:57.841Z,3.70
2017-12-23T05:25:25.450Z,3.40
2017-12-23T05:27:53.066Z,3.08
2017-12-23T05:30:20.581Z,3.30
2017-12-23T05:32:48.084Z,2.97
2017-12-23T05:35:16.063Z,3.10
2017-12-23T05:37:44.353Z,2.72
2017-12-23T05:40:12.740Z,2.92
2017-12-23T05:42:40.319Z,2.67
2017-12-23T05:45:07.919Z,2.80
2017-12-23T05:47:35.437Z,2.83
2017-12-23T05:50:02.953Z,2.92
2017-12-23T05:52:30.470Z,2.75
2017-12-23T05:54:57.989Z,2.50
2017-12-23T05:57:26.327Z,2.78
2017-12-23T05:59:54.085Z,3.20
2017-12-23T06:02:21.658Z,3.00
2017-12-23T06:04:49.276Z,2.25
2017-12-23T06:07:16.788Z,2.67
2017-12-23T06:09:45.077Z,2.53
2017-12-23T06:12:13.652Z,2.58
2017-12-23T06:14:41.921Z,2.78
2017-12-23T06:17:09.421Z,3.08
2017-12-23T06:19:37.093Z,3.08
2017-12-23T06:22:04.772Z,2.83
2017-12-23T06:24:32.443Z,3.00
2017-12-23T06:26:59.944Z,3.10
2017-12-23T06:29:27.464Z,3.12
2017-12-23T06:31:54.989Z,2.45
2017-12-23T06:34:22.553Z,2.45
2017-12-23T06:36:50.177Z,2.60
2017-12-23T06:39:17.787Z,3.37
2017-12-23T06:41:45.332Z,3.30
2017-12-23T06:44:12.848Z,2.87
2017-12-23T06:46:40.369Z,2.83
2017-12-23T06:49:07.894Z,2.70
2017-12-23T06:51:35.417Z,2.75
2017-12-23T06:54:03.728Z,2.65
2017-12-23T06:56:31.249Z,3.10
2017-12-23T06:58:58.946Z,3.03
2017-12-23T07:01:26.460Z,3.10
2017-12-23T07:03:54.031Z,2.75
2017-12-23T07:06:22.310Z,2.85
2017-12-23T07:08:49.835Z,2.80
2017-12-23T07:11:17.517Z,2.80
2017-12-23T07:13:45.828Z,2.78
2017-12-23T07:16:13.753Z,3.92
2017-12-23T07:18:41.318Z,2.47
2017-12-23T07:21:09.629Z,3.40
2017-12-23T07:23:37.141Z,2.80
2017-12-23T07:26:04.658Z,3.25
2017-12-23T07:28:32.195Z,4.12
2017-12-23T07:30:59.792Z,4.00
2017-12-23T07:33:27.462Z,3.28
2017-12-23T07:35:55.198Z,3.83
2017-12-23T07:38:22.713Z,3.72
2017-12-23T07:40:51.004Z,4.00
2017-12-23T07:43:19.288Z,4.12
2017-12-23T07:45:46.821Z,4.40
2017-12-23T07:48:14.500Z,3.00
2017-12-23T07:50:42.195Z,3.25
2017-12-23T07:53:09.953Z,3.25
2017-12-23T07:55:37.452Z,4.30
2017-12-23T07:58:04.990Z,4.12
2017-12-23T08:00:32.508Z,4.20
2017-12-23T08:03:00.030Z,4.68
2017-12-23T08:05:27.658Z,3.62
2017-12-23T08:07:55.438Z,3.67
2017-12-23T08:10:22.948Z,5.07
2017-12-23T08:12:50.544Z,3.10
2017-12-23T08:15:18.061Z,3.70
2017-12-23T08:17:45.657Z,4.00
2017-12-23T08:20:13.181Z,4.05
2017-12-23T08:22:40.773Z,3.15
2017-12-23T08:25:08.337Z,3.25
2017-12-23T08:27:35.875Z,3.28
2017-12-23T08:30:03.384Z,3.53
2017-12-23T08:32:30.915Z,3.30
2017-12-23T08:34:58.673Z,3.22
2017-12-23T08:37:26.180Z,3.37
2017-12-23T08:39:54.468Z,3.20
2017-12-23T08:42:22.847Z,3.90
2017-12-23T08:44:50.415Z,3.75
2017-12-23T08:47:17.946Z,3.33
2017-12-23T08:49:46.265Z,3.33
2017-12-23T08:52:13.776Z,3.20
2017-12-23T08:54:41.305Z,3.12
2017-12-23T08:57:08.946Z,2.67
2017-12-23T08:59:36.483Z,2.83
2017-12-23T09:02:04.004Z,3.08
2017-12-23T09:04:31.529Z,2.60
2017-12-23T09:06:59.032Z,2.62
2017-12-23T09:09:27.326Z,2.85
2017-12-23T09:11:55.664Z,2.10
2017-12-23T09:14:23.197Z,2.60
2017-12-23T09:16:50.866Z,2.65
2017-12-23T09:19:19.347Z,2.70
2017-12-23T09:21:47.031Z,2.85
2017-12-23T09:24:14.549Z,2.53
2017-12-23T09:26:42.078Z,2.75
2017-12-23T09:29:09.605Z,2.00
2017-12-23T09:31:37.120Z,2.80
2017-12-23T09:34:04.730Z,2.17
2017-12-23T09:36:32.389Z,2.30
2017-12-23T09:38:59.916Z,2.70
2017-12-23T09:41:27.522Z,2.25
2017-12-23T09:43:55.804Z,2.83
2017-12-23T09:46:24.069Z,2.17
2017-12-23T09:48:52.356Z,2.20
2017-12-23T09:51:20.652Z,2.58
2017-12-23T09:53:48.179Z,2.70
2017-12-23T09:56:16.484Z,2.30
2017-12-23T09:58:44.123Z,3.12
2017-12-23T10:01:11.692Z,2.95
2017-12-23T10:03:39.979Z,2.65
2017-12-23T10:06:07.489Z,2.83
2017-12-23T10:08:35.005Z,2.67
2017-12-23T10:11:02.548Z,2.40
2017-12-23T10:13:30.097Z,2.60
2017-12-23T10:15:58.486Z,2.80
2017-12-23T10:18:26.136Z,2.55
2017-12-23T10:20:53.905Z,2.62
2017-12-23T10:23:22.222Z,2.60
2017-12-23T10:25:49.787Z,3.25
2017-12-23T10:28:17.297Z,3.28
2017-12-23T10:30:44.844Z,5.55
2017-12-23T10:33:13.264Z,4.20
2017-12-23T10:35:40.887Z,3.72
2017-12-23T10:38:09.416Z,4.25
2017-12-23T10:40:37.047Z,3.55
2017-12-23T10:43:04.586Z,3.50
2017-12-23T10:45:32.951Z,3.37
2017-12-23T10:48:00.470Z,3.30
2017-12-23T10:50:27.971Z,3.15
2017-12-23T10:52:56.288Z,3.60
2017-12-23T10:55:23.846Z,2.50
2017-12-23T10:57:51.460Z,3.40
2017-12-23T11:00:19.029Z,2.40
2017-12-23T11:02:47.328Z,3.03
2017-12-23T11:05:15.362Z,2.60
2017-12-23T11:07:42.888Z,2.62
2017-12-23T11:10:10.412Z,2.35
2017-12-23T11:12:37.917Z,2.60
2017-12-23T11:15:05.497Z,2.97
2017-12-23T11:17:33.012Z,2.70
2017-12-23T11:20:00.934Z,2.70
2017-12-23T11:22:29.225Z,3.20
2017-12-23T11:24:56.755Z,2.35
2017-12-23T11:27:24.272Z,2.65
2017-12-23T11:29:51.796Z,3.30
2017-12-23T11:32:19.301Z,3.53
2017-12-23T11:34:46.976Z,2.78
2017-12-23T11:37:14.492Z,3.03
2017-12-23T11:39:42.072Z,2.75
2017-12-23T11:42:09.600Z,3.60
2017-12-23T11:44:37.129Z,4.40
2017-12-23T11:47:05.429Z,5.20
2017-12-23T11:49:32.980Z,5.43
2017-12-23T11:52:01.381Z,6.65
2017-12-23T11:54:28.908Z,7.65
2017-12-23T11:56:57.278Z,5.85
2017-12-23T11:59:24.872Z,4.90
2017-12-23T12:01:53.209Z,4.97
2017-12-23T12:04:20.732Z,4.93
2017-12-23T12:06:48.434Z,6.03
2017-12-23T12:09:16.017Z,7.15
2017-12-23T12:11:43.689Z,7.10
2017-12-23T12:14:11.240Z,12.80
2017-12-23T12:16:39.546Z,7.93
2017-12-23T12:19:07.084Z,6.60
2017-12-23T12:21:34.892Z,11.43
2017-12-23T12:24:03.195Z,7.47
2017-12-23T12:26:31.484Z,7.85
2017-12-23T12:28:59.008Z,7.18
2017-12-23T12:31:27.316Z,7.22
2017-12-23T12:33:55.695Z,7.45
2017-12-23T12:36:23.217Z,7.87
2017-12-23T12:38:50.869Z,7.00
2017-12-23T12:41:18.382Z,5.87
2017-12-23T12:43:45.984Z,8.73
2017-12-23T12:46:13.534Z,5.57
2017-12-23T12:48:41.296Z,5.35
2017-12-23T12:51:08.810Z,6.62
2017-12-23T12:53:36.596Z,6.55
2017-12-23T12:56:04.113Z,6.07
2017-12-23T12:58:32.400Z,6.57
2017-12-23T13:01:00.776Z,6.82
2017-12-23T13:03:29.124Z,6.75
2017-12-23T13:05:56.652Z,7.80
2017-12-23T13:08:24.232Z,6.72
2017-12-23T13:10:51.759Z,7.10
2017-12-23T13:13:19.267Z,6.20
2017-12-23T13:15:46.845Z,4.75
2017-12-23T13:18:15.216Z,4.57
2017-12-23T13:20:52.745Z,5.95
2017-12-23T13:23:21.602Z,5.93
2017-12-23T13:25:49.962Z,3.23
2017-12-23T13:28:17.518Z,13.80
2017-12-23T13:30:45.165Z,20.83
2017-12-23T13:33:12.765Z,10.95
2017-12-23T13:35:41.121Z,7.62
2017-12-23T13:38:08.654Z,8.57
2017-12-23T13:40:36.250Z,7.93
2017-12-23T13:43:03.792Z,9.40
2017-12-23T13:45:31.359Z,9.60
2017-12-23T13:47:59.676Z,6.40
2017-12-23T13:50:27.246Z,5.13
2017-12-23T13:52:54.767Z,6.10
2017-12-23T13:55:23.115Z,4.10
2017-12-23T13:57:50.628Z,5.37
2017-12-23T14:00:18.140Z,6.93
2017-12-23T14:02:45.682Z,8.17
2017-12-23T14:05:13.247Z,8.00
2017-12-23T14:07:40.754Z,9.37
2017-12-23T14:10:08.261Z,9.60
2017-12-23T14:12:36.569Z,12.10
2017-12-23T14:15:04.948Z,9.70
2017-12-23T14:17:33.233Z,7.67
2017-12-23T14:20:01.716Z,8.20
2017-12-23T14:22:30.009Z,10.30
2017-12-23T14:25:07.457Z,7.77
2017-12-23T14:27:35.067Z,10.10
2017-12-23T14:30:02.592Z,8.67
2017-12-23T14:32:30.901Z,10.13
2017-12-23T14:34:58.416Z,5.90
2017-12-23T14:37:26.864Z,22.60
2017-12-23T14:39:54.394Z,8.87
2017-12-23T14:42:21.917Z,8.27
2017-12-23T14:44:50.201Z,9.10
2017-12-23T14:47:18.501Z,9.67
2017-12-23T14:49:46.012Z,11.63
2017-12-23T14:52:13.686Z,17.23
2017-12-23T14:54:42.064Z,7.10
2017-12-23T14:57:10.353Z,8.00
2017-12-23T14:59:38.746Z,8.60
2017-12-23T15:02:06.277Z,6.77
2017-12-23T15:04:34.648Z,5.70
2017-12-23T15:07:02.940Z,8.07
2017-12-23T15:09:31.551Z,7.23
2017-12-23T15:11:59.047Z,6.43
2017-12-23T15:14:26.592Z,8.87
2017-12-23T15:16:54.111Z,5.00
2017-12-23T15:19:21.696Z,5.60
2017-12-23T15:21:49.260Z,4.60
2017-12-23T15:24:17.085Z,4.73
2017-12-23T15:26:44.614Z,5.30
2017-12-23T15:29:12.147Z,4.20
2017-12-23T15:31:39.663Z,5.50
2017-12-23T15:34:07.297Z,4.80
2017-12-23T15:36:34.799Z,7.03
2017-12-23T15:39:02.412Z,4.13
2017-12-23T15:41:29.932Z,4.25
2017-12-23T15:43:57.471Z,5.23
